createdAt,value
2018-12-08T00:00:36.847Z,6.70
2018-12-08T00:03:05.329Z,6.70
2018-12-08T00:05:33.843Z,6.70
2018-12-08T00:08:02.291Z,6.60
2018-12-08T00:10:30.744Z,6.60
2018-12-08T00:12:59.163Z,6.60
2018-12-08T00:15:28.219Z,6.60
2018-12-08T00:17:56.665Z,6.60
2018-12-08T00:20:25.151Z,6.50
2018-12-08T00:22:53.581Z,6.50
2018-12-08T00:25:22.021Z,6.40
2018-12-08T00:27:50.864Z,6.50
2018-12-08T00:31:31.866Z,6.50
2018-12-08T00:34:00.321Z,6.50
2018-12-08T00:36:28.804Z,6.50
2018-12-08T00:38:57.258Z,6.40
2018-12-08T00:41:25.736Z,6.50
2018-12-08T00:43:54.164Z,6.50
2018-12-08T00:46:22.744Z,6.50
2018-12-08T00:48:51.344Z,6.50
2018-12-08T00:51:19.784Z,6.50
2018-12-08T00:53:48.277Z,6.50
2018-12-08T00:56:16.779Z,6.50
2018-12-08T00:58:45.218Z,6.50
2018-12-08T01:01:13.852Z,6.50
2018-12-08T01:03:42.365Z,6.50
2018-12-08T01:06:10.823Z,6.50
2018-12-08T01:08:39.307Z,6.50
2018-12-08T01:11:08.611Z,6.50
2018-12-08T01:13:37.124Z,6.50
2018-12-08T01:16:05.634Z,6.50
2018-12-08T01:18:34.064Z,6.50
2018-12-08T01:21:02.599Z,6.50
2018-12-08T01:23:31.057Z,6.50
2018-12-08T01:25:59.560Z,6.60
2018-12-08T01:28:28.007Z,6.60
2018-12-08T01:30:56.448Z,6.50
2018-12-08T01:33:24.927Z,6.50
2018-12-08T01:35:53.401Z,6.50
2018-12-08T01:38:21.865Z,6.50
2018-12-08T01:40:50.311Z,6.60
2018-12-08T01:43:19.579Z,6.50
2018-12-08T01:45:48.053Z,6.50
2018-12-08T01:48:16.502Z,6.60
2018-12-08T01:50:44.991Z,6.60
2018-12-08T01:53:13.466Z,6.60
2018-12-08T01:55:41.972Z,6.60
2018-12-08T01:58:10.606Z,6.60
2018-12-08T02:00:39.280Z,6.60
2018-12-08T02:03:07.771Z,6.70
2018-12-08T02:05:36.615Z,6.70
2018-12-08T02:08:05.121Z,6.70
2018-12-08T02:10:33.619Z,6.70
2018-12-08T02:13:02.526Z,6.70
2018-12-08T02:15:31.051Z,6.70
2018-12-08T02:17:59.501Z,6.70
2018-12-08T02:20:28.022Z,6.70
2018-12-08T02:22:56.504Z,6.60
2018-12-08T02:25:24.978Z,6.60
2018-12-08T02:27:53.424Z,6.70
2018-12-08T02:30:22.015Z,6.70
2018-12-08T02:32:50.495Z,6.60
2018-12-08T02:35:19.011Z,6.70
2018-12-08T02:37:48.039Z,6.70
2018-12-08T02:40:16.566Z,6.70
2018-12-08T02:42:45.051Z,6.70
2018-12-08T02:45:13.551Z,6.70
2018-12-08T02:47:41.989Z,6.60
2018-12-08T02:50:10.854Z,6.60
2018-12-08T02:52:39.296Z,6.60
2018-12-08T02:55:07.958Z,6.60
2018-12-08T02:57:36.462Z,6.60
2018-12-08T03:00:05.947Z,6.60
2018-12-08T03:02:34.758Z,6.60
2018-12-08T03:05:03.508Z,6.60
2018-12-08T03:07:31.979Z,6.60
2018-12-08T03:10:00.430Z,6.60
2018-12-08T03:12:28.943Z,6.60
2018-12-08T03:14:57.387Z,6.60
2018-12-08T03:17:25.886Z,6.70
2018-12-08T03:19:54.397Z,6.70
2018-12-08T03:22:22.918Z,6.60
2018-12-08T03:24:51.379Z,6.60
2018-12-08T03:27:19.879Z,6.60
2018-12-08T03:29:48.743Z,6.70
2018-12-08T03:32:17.236Z,6.70
2018-12-08T03:34:45.689Z,6.70
2018-12-08T03:37:14.168Z,6.70
2018-12-08T03:39:42.650Z,6.70
2018-12-08T03:42:11.183Z,6.80
2018-12-08T03:44:39.648Z,6.80
2018-12-08T03:47:08.209Z,6.80
2018-12-08T03:49:36.695Z,6.80
2018-12-08T03:52:05.176Z,6.90
2018-12-08T03:54:33.619Z,6.90
2018-12-08T03:57:02.112Z,6.90
2018-12-08T03:59:30.563Z,6.90
2018-12-08T04:01:59.084Z,6.90
2018-12-08T04:04:27.583Z,6.90
2018-12-08T04:06:56.745Z,6.80
2018-12-08T04:09:25.185Z,6.80
2018-12-08T04:11:53.688Z,6.80
2018-12-08T04:14:22.142Z,6.70
2018-12-08T04:16:50.627Z,6.70
2018-12-08T04:19:19.265Z,6.70
2018-12-08T04:21:47.788Z,6.70
2018-12-08T04:24:16.378Z,6.70
2018-12-08T04:26:44.935Z,6.80
2018-12-08T04:29:13.460Z,6.80
2018-12-08T04:31:41.902Z,6.80
2018-12-08T04:34:10.490Z,6.80
2018-12-08T04:36:38.961Z,6.80
2018-12-08T04:39:07.887Z,6.80
2018-12-08T04:41:36.383Z,6.80
2018-12-08T04:44:04.984Z,6.80
2018-12-08T04:46:33.442Z,6.80
2018-12-08T04:49:01.919Z,6.70
2018-12-08T04:51:30.369Z,6.70
2018-12-08T04:53:59.221Z,6.70
2018-12-08T04:56:27.675Z,6.70
2018-12-08T04:58:56.178Z,6.80
2018-12-08T05:01:24.700Z,6.80
2018-12-08T05:03:53.422Z,6.80
2018-12-08T05:06:21.877Z,6.80
2018-12-08T05:08:50.343Z,6.80
2018-12-08T05:11:19.483Z,6.90
2018-12-08T05:13:47.936Z,6.90
2018-12-08T05:16:16.409Z,7.00
2018-12-08T05:18:44.870Z,6.90
2018-12-08T05:21:13.687Z,6.80
2018-12-08T05:23:42.124Z,6.80
2018-12-08T05:26:11.342Z,6.70
2018-12-08T05:28:39.805Z,6.70
2018-12-08T05:31:08.386Z,6.60
2018-12-08T05:33:36.863Z,6.60
2018-12-08T05:36:05.312Z,6.60
2018-12-08T05:38:33.838Z,6.50
2018-12-08T05:41:02.319Z,6.50
2018-12-08T05:43:30.802Z,6.50
2018-12-08T05:45:59.303Z,6.50
2018-12-08T05:48:27.806Z,6.50
2018-12-08T05:50:56.449Z,6.50
2018-12-08T05:53:25.096Z,6.50
2018-12-08T05:55:53.548Z,6.50
2018-12-08T05:58:22.033Z,6.50
2018-12-08T06:00:50.520Z,6.50
2018-12-08T06:03:18.999Z,6.50
2018-12-08T06:05:47.474Z,6.50
2018-12-08T06:08:15.939Z,6.50
2018-12-08T06:10:44.507Z,6.50
2018-12-08T06:13:13.951Z,6.50
2018-12-08T06:15:42.472Z,6.40
2018-12-08T06:18:11.794Z,6.50
2018-12-08T06:20:40.415Z,6.50
2018-12-08T06:23:08.886Z,6.50
2018-12-08T06:25:38.970Z,6.60
2018-12-08T06:28:20.475Z,6.60
2018-12-08T06:30:49.044Z,6.70
2018-12-08T06:33:17.539Z,6.70
2018-12-08T06:35:46.036Z,6.60
2018-12-08T06:38:14.577Z,6.60
2018-12-08T06:40:43.060Z,6.60
2018-12-08T06:43:11.566Z,6.60
2018-12-08T06:45:40.027Z,6.60
2018-12-08T06:48:08.495Z,6.60
2018-12-08T06:50:37.088Z,6.60
2018-12-08T06:53:05.569Z,6.60
2018-12-08T06:55:34.065Z,6.60
2018-12-08T06:58:02.556Z,6.60
2018-12-08T07:00:31.090Z,6.60
2018-12-08T07:02:59.894Z,6.60
2018-12-08T07:05:28.555Z,6.60
2018-12-08T07:07:57.033Z,6.60
2018-12-08T07:13:16.591Z,6.50
2018-12-08T07:15:45.051Z,6.50
2018-12-08T07:18:13.577Z,6.60
2018-12-08T07:20:42.085Z,6.60
2018-12-08T07:23:10.622Z,6.50
2018-12-08T07:25:39.130Z,6.50
2018-12-08T07:28:07.651Z,6.60
2018-12-08T07:30:36.158Z,6.70
2018-12-08T07:33:04.881Z,6.60
2018-12-08T07:35:33.756Z,6.70
2018-12-08T07:38:02.272Z,6.70
2018-12-08T07:40:30.751Z,6.70
2018-12-08T07:42:59.262Z,6.70
2018-12-08T07:45:27.753Z,6.80
2018-12-08T07:47:56.245Z,6.80
2018-12-08T07:50:24.715Z,6.90
2018-12-08T07:52:53.165Z,6.90
2018-12-08T07:55:21.635Z,6.90
2018-12-08T07:57:50.095Z,7.00
2018-12-08T08:00:18.563Z,7.10
2018-12-08T08:02:47.063Z,7.10
2018-12-08T08:05:15.546Z,7.10
2018-12-08T08:07:44.018Z,7.10
2018-12-08T08:10:12.581Z,7.20
2018-12-08T08:12:41.078Z,7.20
2018-12-08T08:15:10.622Z,7.20
2018-12-08T08:17:39.807Z,7.20
2018-12-08T08:20:10.622Z,7.30
2018-12-08T08:22:39.228Z,7.30
2018-12-08T08:25:10.038Z,7.20
2018-12-08T08:27:38.670Z,7.20
2018-12-08T08:30:09.799Z,7.30
2018-12-08T08:32:38.361Z,7.30
2018-12-08T08:35:07.671Z,7.20
2018-12-08T08:37:36.158Z,7.20
2018-12-08T08:40:06.466Z,7.20
2018-12-08T08:42:34.913Z,7.20
2018-12-08T08:45:04.418Z,7.20
2018-12-08T08:47:32.908Z,7.20
2018-12-08T08:50:02.343Z,7.20
2018-12-08T08:52:31.472Z,7.20
2018-12-08T08:54:59.979Z,7.20
2018-12-08T08:57:28.527Z,7.30
2018-12-08T08:59:57.072Z,7.30
2018-12-08T09:02:25.537Z,7.30
2018-12-08T09:04:54.027Z,7.40
2018-12-08T09:07:22.489Z,7.50
2018-12-08T09:09:50.950Z,7.50
2018-12-08T09:12:19.477Z,7.50
2018-12-08T09:14:47.918Z,7.50
2018-12-08T09:17:16.377Z,7.50
2018-12-08T09:19:44.886Z,7.60
2018-12-08T09:22:13.421Z,7.60
2018-12-08T09:24:41.906Z,7.70
2018-12-08T09:27:10.356Z,7.70
2018-12-08T09:29:38.848Z,7.70
2018-12-08T09:32:07.317Z,7.70
2018-12-08T09:34:35.821Z,7.80
2018-12-08T09:37:04.451Z,7.80
2018-12-08T09:39:32.931Z,7.80
2018-12-08T09:42:08.003Z,7.90
2018-12-08T09:44:36.747Z,7.90
2018-12-08T09:47:05.268Z,8.00
2018-12-08T09:49:33.776Z,8.10
2018-12-08T09:52:03.892Z,8.10
2018-12-08T09:54:32.428Z,8.20
2018-12-08T09:57:00.899Z,8.30
2018-12-08T09:59:29.533Z,8.30
2018-12-08T10:01:58.004Z,8.40
2018-12-08T10:04:27.812Z,8.30
2018-12-08T10:06:56.324Z,8.40
2018-12-08T10:09:24.807Z,8.40
2018-12-08T10:11:53.269Z,8.40
2018-12-08T10:14:21.757Z,8.40
2018-12-08T10:16:50.273Z,8.50
2018-12-08T10:19:18.770Z,8.50
2018-12-08T10:21:47.246Z,8.60
2018-12-08T10:24:15.767Z,8.60
2018-12-08T10:26:44.360Z,8.70
2018-12-08T10:29:12.849Z,8.80
2018-12-08T10:31:41.352Z,8.70
2018-12-08T10:34:09.783Z,8.80
2018-12-08T10:36:38.630Z,8.70
2018-12-08T10:39:08.648Z,8.80
2018-12-08T10:41:39.345Z,8.70
2018-12-08T10:44:07.864Z,8.70
2018-12-08T10:46:36.391Z,8.70
2018-12-08T10:49:04.942Z,8.60
2018-12-08T10:51:33.428Z,8.60
2018-12-08T10:54:01.905Z,8.60
2018-12-08T10:56:30.373Z,8.60
2018-12-08T10:58:58.895Z,8.70
2018-12-08T11:01:32.947Z,8.70
2018-12-08T11:04:01.413Z,8.70
2018-12-08T11:06:29.892Z,8.70
2018-12-08T11:08:58.336Z,8.70
2018-12-08T11:11:26.827Z,8.80
2018-12-08T11:13:55.413Z,8.70
2018-12-08T11:16:23.965Z,8.70
2018-12-08T11:18:52.431Z,8.70
2018-12-08T11:21:20.967Z,8.80
2018-12-08T11:23:49.447Z,8.80
2018-12-08T11:26:17.938Z,8.80
2018-12-08T11:28:46.400Z,8.80
2018-12-08T11:31:15.031Z,8.80
2018-12-08T11:33:43.611Z,8.80
2018-12-08T11:36:12.092Z,8.80
2018-12-08T11:38:40.572Z,8.90
2018-12-08T11:41:09.085Z,8.90
2018-12-08T11:43:37.611Z,9.00
2018-12-08T11:46:06.142Z,9.00
2018-12-08T11:48:34.624Z,9.10
2018-12-08T11:51:03.123Z,9.10
2018-12-08T11:53:31.592Z,9.10
2018-12-08T11:56:00.124Z,9.10
2018-12-08T11:58:28.598Z,9.20
2018-12-08T12:00:57.098Z,9.20
2018-12-08T12:03:25.565Z,9.20
2018-12-08T12:05:54.191Z,9.30
2018-12-08T12:08:22.652Z,9.30
2018-12-08T12:10:51.127Z,9.30
2018-12-08T12:13:19.572Z,9.30
2018-12-08T12:15:48.060Z,9.30
2018-12-08T12:18:16.531Z,9.30
2018-12-08T12:20:45.098Z,9.40
2018-12-08T12:23:13.619Z,9.40
2018-12-08T12:25:42.285Z,9.40
2018-12-08T12:28:11.200Z,9.50
2018-12-08T12:30:40.092Z,9.40
2018-12-08T12:33:08.607Z,9.40
2018-12-08T12:35:37.157Z,9.40
2018-12-08T12:38:05.599Z,9.40
2018-12-08T12:40:34.061Z,9.50
2018-12-08T12:43:02.626Z,9.50
2018-12-08T12:45:31.138Z,9.50
2018-12-08T12:47:59.712Z,9.50
2018-12-08T12:50:28.158Z,9.50
2018-12-08T12:52:56.634Z,9.50
2018-12-08T12:55:25.128Z,9.50
2018-12-08T12:57:55.455Z,9.50
2018-12-08T13:00:23.940Z,9.50
2018-12-08T13:02:52.422Z,9.50
2018-12-08T13:05:20.905Z,9.60
2018-12-08T13:07:49.390Z,9.60
2018-12-08T13:10:17.871Z,9.60
2018-12-08T13:12:46.351Z,9.60
2018-12-08T13:15:14.812Z,9.60
2018-12-08T13:17:43.320Z,9.60
2018-12-08T13:20:11.795Z,9.60
2018-12-08T13:22:40.353Z,9.60
2018-12-08T13:25:18.797Z,9.60
2018-12-08T13:27:47.259Z,9.60
2018-12-08T13:30:15.708Z,9.60
2018-12-08T13:32:44.233Z,9.60
2018-12-08T13:35:22.601Z,9.60
2018-12-08T13:37:51.234Z,9.60
2018-12-08T13:40:19.687Z,9.60
2018-12-08T13:42:48.246Z,9.60
2018-12-08T13:45:18.555Z,9.60
2018-12-08T13:47:47.189Z,9.60
2018-12-08T13:50:15.638Z,9.60
2018-12-08T13:52:44.406Z,9.70
2018-12-08T13:55:13.227Z,9.70
2018-12-08T13:57:41.784Z,9.70
2018-12-08T14:00:10.374Z,9.70
2018-12-08T14:02:38.973Z,9.70
2018-12-08T14:05:08.065Z,9.70
2018-12-08T14:07:36.652Z,9.70
2018-12-08T14:10:06.800Z,9.80
2018-12-08T14:12:35.318Z,9.80
2018-12-08T14:15:04.220Z,9.80
2018-12-08T14:17:36.188Z,9.80
2018-12-08T14:20:23.950Z,9.80
2018-12-08T14:22:52.431Z,9.80
2018-12-08T14:25:20.978Z,9.80
2018-12-08T14:27:49.530Z,9.80
2018-12-08T14:30:18.163Z,9.80
2018-12-08T14:32:46.623Z,9.70
2018-12-08T14:35:15.093Z,9.80
2018-12-08T14:37:43.553Z,9.70
2018-12-08T14:40:12.148Z,9.70
2018-12-08T14:42:40.748Z,9.70
2018-12-08T14:45:11.535Z,9.80
2018-12-08T14:47:40.039Z,9.70
2018-12-08T14:50:10.862Z,9.80
2018-12-08T14:52:41.566Z,9.80
2018-12-08T14:55:10.793Z,9.70
2018-12-08T14:57:39.286Z,9.80
2018-12-08T15:00:12.827Z,9.70
2018-12-08T15:02:41.602Z,9.70
2018-12-08T15:05:11.363Z,9.80
2018-12-08T15:07:39.947Z,9.80
2018-12-08T15:10:12.115Z,9.80
2018-12-08T15:12:40.747Z,9.70
2018-12-08T15:15:10.614Z,9.70
2018-12-08T15:17:39.195Z,9.80
2018-12-08T15:20:09.147Z,9.70
2018-12-08T15:22:37.732Z,9.70
2018-12-08T15:25:08.252Z,9.70
2018-12-08T15:27:36.730Z,9.80
2018-12-08T15:30:06.661Z,9.70
2018-12-08T15:32:35.155Z,9.70
2018-12-08T15:35:03.773Z,9.80
2018-12-08T15:37:32.217Z,9.80
2018-12-08T15:40:00.796Z,9.80
2018-12-08T15:42:29.264Z,9.80
2018-12-08T15:44:57.731Z,9.70
2018-12-08T15:47:26.183Z,9.70
2018-12-08T15:49:55.525Z,9.70
2018-12-08T15:52:23.939Z,9.70
2018-12-08T15:54:53.252Z,9.70
2018-12-08T15:57:23.329Z,9.70
2018-12-08T15:59:51.979Z,9.70
2018-12-08T16:02:20.493Z,9.70
2018-12-08T16:04:48.961Z,9.70
2018-12-08T16:07:17.432Z,9.80
2018-12-08T16:09:45.963Z,9.80
2018-12-08T16:12:14.790Z,9.70
2018-12-08T16:14:43.315Z,9.60
2018-12-08T16:17:11.840Z,9.50
2018-12-08T16:19:40.378Z,9.40
2018-12-08T16:22:08.881Z,9.40
2018-12-08T16:24:37.783Z,9.30
2018-12-08T16:27:06.252Z,9.30
2018-12-08T16:29:34.771Z,9.20
2018-12-08T16:32:03.261Z,9.10
2018-12-08T16:34:31.868Z,9.10
2018-12-08T16:37:00.470Z,9.00
2018-12-08T16:39:28.980Z,9.00
2018-12-08T16:41:57.495Z,8.90
2018-12-08T16:44:26.068Z,8.80
2018-12-08T16:46:54.609Z,8.80
2018-12-08T16:49:23.827Z,8.80
2018-12-08T16:51:52.258Z,8.70
2018-12-08T16:54:23.667Z,8.70
2018-12-08T16:56:52.179Z,8.70
2018-12-08T16:59:21.005Z,8.70
2018-12-08T17:01:53.189Z,8.60
2018-12-08T17:04:22.359Z,8.60
2018-12-08T17:06:51.138Z,8.60
2018-12-08T17:09:19.857Z,8.60
2018-12-08T17:11:48.357Z,8.60
2018-12-08T17:14:18.530Z,8.70
2018-12-08T17:16:47.048Z,8.70
2018-12-08T17:19:15.500Z,8.70
2018-12-08T17:21:44.193Z,8.70
2018-12-08T17:24:12.691Z,8.80
2018-12-08T17:26:41.227Z,8.80
2018-12-08T17:29:09.666Z,8.90
2018-12-08T17:31:38.158Z,8.90
2018-12-08T17:34:06.631Z,8.90
2018-12-08T17:36:35.095Z,8.90
2018-12-08T17:39:05.105Z,9.00
2018-12-08T17:41:33.548Z,8.90
2018-12-08T17:44:03.547Z,9.00
2018-12-08T17:46:32.532Z,9.00
2018-12-08T17:49:00.992Z,9.00
2018-12-08T17:51:29.467Z,9.00
2018-12-08T17:53:59.973Z,8.90
2018-12-08T17:56:28.400Z,8.90
2018-12-08T17:58:56.939Z,8.90
2018-12-08T18:01:25.409Z,8.90
2018-12-08T18:03:54.513Z,8.90
2018-12-08T18:06:23.353Z,8.90
2018-12-08T18:08:51.814Z,8.80
2018-12-08T18:11:20.260Z,8.80
2018-12-08T18:13:48.760Z,8.70
2018-12-08T18:16:17.287Z,8.70
2018-12-08T18:18:45.840Z,8.80
2018-12-08T18:21:14.447Z,8.70
2018-12-08T18:23:42.993Z,8.80
2018-12-08T18:26:11.495Z,8.80
2018-12-08T18:28:40.161Z,8.80
2018-12-08T18:31:08.628Z,8.80
2018-12-08T18:33:37.130Z,8.80
2018-12-08T18:36:05.712Z,8.90
2018-12-08T18:38:34.316Z,8.90
2018-12-08T18:41:05.602Z,8.90
2018-12-08T18:43:34.138Z,8.90
2018-12-08T18:46:02.775Z,8.90
2018-12-08T18:48:31.236Z,8.90
2018-12-08T18:50:59.715Z,9.00
2018-12-08T18:53:28.373Z,9.00
2018-12-08T18:55:56.884Z,9.00
2018-12-08T18:58:25.332Z,9.00
2018-12-08T19:00:53.788Z,9.00
2018-12-08T19:03:22.252Z,9.00
2018-12-08T19:05:50.727Z,9.00
2018-12-08T19:08:19.256Z,9.00
2018-12-08T19:10:47.749Z,9.00
2018-12-08T19:13:16.237Z,9.00
2018-12-08T19:15:44.683Z,9.00
2018-12-08T19:18:13.217Z,9.10
2018-12-08T19:20:41.705Z,9.10
2018-12-08T19:23:10.340Z,9.20
2018-12-08T19:25:38.827Z,9.20
2018-12-08T19:28:07.415Z,9.20
2018-12-08T19:30:35.892Z,9.20
2018-12-08T19:33:04.505Z,9.30
2018-12-08T19:35:33.060Z,9.30
2018-12-08T19:38:01.504Z,9.20
2018-12-08T19:40:30.048Z,9.20
2018-12-08T19:42:58.638Z,9.20
2018-12-08T19:45:27.324Z,9.20
2018-12-08T19:47:55.839Z,9.20
2018-12-08T19:50:24.282Z,9.20
2018-12-08T19:52:52.810Z,9.10
2018-12-08T19:55:21.310Z,9.10
2018-12-08T19:57:49.834Z,9.10
2018-12-08T20:00:18.314Z,9.20
2018-12-08T20:02:46.841Z,9.20
2018-12-08T20:05:15.330Z,9.20
2018-12-08T20:07:43.789Z,9.30
2018-12-08T20:10:12.369Z,9.40
2018-12-08T20:12:40.849Z,9.40
2018-12-08T20:15:11.507Z,9.50
2018-12-08T20:17:40.002Z,9.50
2018-12-08T20:20:08.507Z,9.50
2018-12-08T20:22:36.973Z,9.60
2018-12-08T20:25:06.217Z,9.60
2018-12-08T20:27:35.624Z,9.70
2018-12-08T20:30:04.367Z,9.80
2018-12-08T20:32:32.867Z,9.80
2018-12-08T20:35:01.350Z,9.80
2018-12-08T20:37:29.808Z,9.80
2018-12-08T20:39:58.224Z,9.90
2018-12-08T20:42:26.692Z,9.90
2018-12-08T20:44:55.127Z,9.90
2018-12-08T20:47:23.659Z,9.90
2018-12-08T20:49:52.134Z,9.80
2018-12-08T20:52:20.581Z,9.80
2018-12-08T20:54:49.066Z,9.80
2018-12-08T20:57:17.578Z,9.80
2018-12-08T20:59:46.002Z,9.80
2018-12-08T21:02:14.571Z,9.80
2018-12-08T21:04:43.075Z,9.80
2018-12-08T21:07:11.563Z,9.70
2018-12-08T21:09:40.088Z,9.70
2018-12-08T21:12:09.346Z,9.70
2018-12-08T21:14:37.878Z,9.70
2018-12-08T21:17:06.599Z,9.70
2018-12-08T21:19:35.095Z,9.70
2018-12-08T21:22:03.545Z,9.80
2018-12-08T21:24:32.072Z,9.70
2018-12-08T21:27:00.714Z,9.80
2018-12-08T21:29:29.205Z,9.80
2018-12-08T21:31:57.649Z,9.80
2018-12-08T21:34:26.972Z,9.90
2018-12-08T21:36:55.483Z,9.90
2018-12-08T21:39:23.961Z,9.80
2018-12-08T21:41:52.389Z,9.90
2018-12-08T21:44:20.843Z,9.90
2018-12-08T21:46:49.328Z,9.90
2018-12-08T21:49:17.796Z,10.00
2018-12-08T21:51:46.332Z,9.90
2018-12-08T21:54:14.812Z,10.00
2018-12-08T21:56:43.396Z,10.00
2018-12-08T21:59:11.852Z,10.00
2018-12-08T22:01:40.415Z,10.00
2018-12-08T22:04:08.895Z,10.00
2018-12-08T22:06:38.548Z,10.00
2018-12-08T22:09:07.683Z,9.90
2018-12-08T22:11:36.161Z,9.90
2018-12-08T22:14:04.753Z,9.90
2018-12-08T22:16:33.223Z,9.90
2018-12-08T22:19:01.682Z,9.90
2018-12-08T22:21:30.123Z,9.90
2018-12-08T22:23:58.557Z,9.90
2018-12-08T22:26:27.002Z,9.90
2018-12-08T22:28:55.478Z,9.90
2018-12-08T22:31:23.918Z,9.90
2018-12-08T22:33:52.364Z,9.90
2018-12-08T22:36:20.796Z,10.00
2018-12-08T22:38:49.285Z,10.00
2018-12-08T22:41:17.777Z,10.00
2018-12-08T22:43:46.271Z,10.00
2018-12-08T22:46:14.777Z,9.90
2018-12-08T22:48:43.305Z,10.00
2018-12-08T22:51:11.770Z,10.00
2018-12-08T22:53:40.218Z,10.00
2018-12-08T22:56:08.690Z,10.00
2018-12-08T22:58:37.166Z,10.00
2018-12-08T23:01:05.740Z,10.00
2018-12-08T23:03:34.238Z,10.00
2018-12-08T23:06:02.701Z,10.00
2018-12-08T23:08:31.137Z,10.00
2018-12-08T23:11:01.391Z,10.00
2018-12-08T23:13:30.158Z,9.90
2018-12-08T23:15:58.627Z,9.80
2018-12-08T23:18:27.102Z,9.80
2018-12-08T23:20:55.659Z,9.70
2018-12-08T23:23:24.182Z,9.70
2018-12-08T23:25:52.622Z,9.60
2018-12-08T23:28:21.080Z,9.60
2018-12-08T23:30:49.677Z,9.50
2018-12-08T23:33:19.493Z,9.40
2018-12-08T23:35:48.683Z,9.40
2018-12-08T23:38:17.284Z,9.40
2018-12-08T23:40:46.625Z,9.30
2018-12-08T23:43:15.153Z,9.30
2018-12-08T23:45:43.652Z,9.30
2018-12-08T23:48:12.175Z,9.30
2018-12-08T23:50:40.700Z,9.30
2018-12-08T23:53:09.185Z,9.20
2018-12-08T23:55:37.636Z,9.20
2018-12-08T23:58:06.082Z,9.20
